Tecumseh — WTW9257 — position and weather

sailwx.info

Track history (hours):
 
Tides and Currents Weather Stations Pressure Air Temp Water Temp Dewpoint Dewpoint Depression Visibility Wind Speed Wind Dir Waves Ship Positions

Tecumseh

Owner: Sause Bros. Inc., COOS BAY, OR. More information available from US FCC via Universal Licensing System and Coast Guard Vessel Documentation Center.

Last reported at 2017-Aug-18 10:00 UTC. Time now 2017-Aug-18 10:27 UTC.
Position N 36°28' W 122°37'.

Length 90 m; draft 4.8 m.

Type: Tow > 200 m length. MMSI: 367133160.

Date/timePositionNaut miles runAvg speedWind from/ knotsBaromVisibWave heightAir tempDewpointWater temp
2017-Aug-18 10:00N 36°28' W 122°37'4 7.1
2017-Aug-18 09:30N 36°31' W 122°39'3 7.0
2017-Aug-18 09:00N 36°34' W 122°41'9 7.1
2017-Aug-18 07:47N 36°42' W 122°45'2 7.3
2017-Aug-18 07:29N 36°44' W 122°46'3 7.2
2017-Aug-18 07:00N 36°47' W 122°48'4 6.9
2017-Aug-18 06:30N 36°51' W 122°50'4 7.0
2017-Aug-18 05:53N 36°55' W 122°52'3 7.1
2017-Aug-18 05:30N 36°57' W 122°54'4 7.2
2017-Aug-18 05:00N 37°00' W 122°56'6 7.3
2017-Aug-18 04:11N 37°06' W 122°58'1 7.1
2017-Aug-18 04:00N 37°07' W 122°59'3 7.0
2017-Aug-18 03:30N 37°10' W 123°01'3 6.9
2017-Aug-18 03:00N 37°13' W 123°02'3 6.8
2017-Aug-18 02:30N 37°17' W 123°02'3 6.9
2017-Aug-18 02:00N 37°20' W 123°03'4 7.0
2017-Aug-18 01:30N 37°24' W 123°04'3 6.8
2017-Aug-18 01:01N 37°27' W 123°04'4 7.9
2017-Aug-18 00:30N 37°31' W 123°04'4 7.5
2017-Aug-18 00:00N 37°35' W 123°03'5 7.7
2017-Aug-17 23:25N 37°37' W 122°58'3 7.2
2017-Aug-17 23:00N 37°39' W 122°55'4 7.6
2017-Aug-17 22:29N 37°41' W 122°51'4 7.8
2017-Aug-17 22:00N 37°43' W 122°47'4 7.8
2017-Aug-17 21:30N 37°45' W 122°43'4 7.9
2017-Aug-17 21:00N 37°46' W 122°38'4 8.7
2017-Aug-17 20:30N 37°48' W 122°33'510.0
2017-Aug-17 20:00N 37°50' W 122°27'4 7.4
2017-Aug-17 19:31N 37°53' W 122°25'2 3.6
2017-Aug-17 19:00N 37°55' W 122°26'0 0.0
2017-Aug-17 18:30N 37°55' W 122°26'0 0.0
2017-Aug-17 18:00N 37°55' W 122°26'0 0.1
2017-Aug-17 17:30N 37°55' W 122°26'0 0.0
2017-Aug-17 17:01N 37°55' W 122°26'0 0.0
2017-Aug-17 16:30N 37°55' W 122°26'0 0.0
2017-Aug-17 16:01N 37°55' W 122°26'0 0.5
2017-Aug-17 15:31N 37°55' W 122°26'1 2.0
2017-Aug-17 15:00N 37°55' W 122°25'0 0.3
2017-Aug-17 14:30N 37°55' W 122°25'0 0.0
2017-Aug-17 13:47N 37°55' W 122°25'0 0.0
2017-Aug-17 13:16N 37°55' W 122°25'0 0.0
2017-Aug-17 13:00N 37°55' W 122°25'0 0.0
2017-Aug-17 12:30N 37°55' W 122°25'0 0.0
2017-Aug-17 12:00N 37°55' W 122°25'0 0.0
2017-Aug-17 11:30N 37°55' W 122°25'0 0.0
2017-Aug-17 11:00N 37°55' W 122°25'0 0.0
2017-Aug-17 10:31N 37°55' W 122°25'0 0.0
2017-Aug-17 10:00N 37°55' W 122°25'0 0.0
2017-Aug-17 09:31N 37°55' W 122°25'0 0.0
2017-Aug-17 09:01N 37°55' W 122°25'0 0.0
2017-Aug-17 08:30N 37°55' W 122°25'0 0.0
2017-Aug-17 08:00N 37°55' W 122°25'0 0.0
2017-Aug-17 07:30N 37°55' W 122°25'0 0.0
2017-Aug-17 07:00N 37°55' W 122°25'0 0.0
2017-Aug-17 06:30N 37°55' W 122°25'0 0.0
2017-Aug-17 06:00N 37°55' W 122°25'0 0.0
2017-Aug-17 05:27N 37°55' W 122°25'0 0.0
2017-Aug-17 05:00N 37°55' W 122°25'0 0.0
2017-Aug-17 04:29N 37°55' W 122°25'0 0.0
2017-Aug-17 04:01N 37°55' W 122°25'0 0.0
2017-Aug-17 03:22N 37°55' W 122°25'0 0.0
2017-Aug-17 02:52N 37°55' W 122°25'0 0.3
2017-Aug-17 02:30N 37°55' W 122°25'0 0.0
2017-Aug-17 02:01N 37°55' W 122°25'1 1.9
2017-Aug-17 01:30N 37°55' W 122°26'3 6.3
2017-Aug-17 01:00N 37°52' W 122°24'5 9.5
2017-Aug-17 00:30N 37°48' W 122°23'1 2.2
2017-Aug-17 00:00N 37°46' W 122°23'0 0.0
2017-Aug-16 23:30N 37°46' W 122°23'0 0.0
2017-Aug-16 23:00N 37°46' W 122°23'0 0.0
2017-Aug-16 22:30N 37°46' W 122°23'3 5.4
2017-Aug-16 22:00N 37°49' W 122°24'510.4
2017-Aug-16 21:30N 37°54' W 122°25'2 4.6
2017-Aug-16 21:00N 37°55' W 122°22'0 0.0
2017-Aug-16 20:30N 37°55' W 122°22'0 0.0
2017-Aug-16 20:00N 37°55' W 122°22'0 0.0
2017-Aug-16 19:30N 37°55' W 122°22'0 0.0
2017-Aug-16 19:00N 37°55' W 122°22'0 0.0
2017-Aug-16 18:30N 37°55' W 122°22'0 0.0
2017-Aug-16 18:00N 37°55' W 122°22'0 0.0
2017-Aug-16 17:30N 37°55' W 122°22'0 0.0
2017-Aug-16 17:00N 37°55' W 122°22'0 0.0
2017-Aug-16 16:29N 37°55' W 122°22'0 0.0
2017-Aug-16 16:00N 37°55' W 122°22'0 0.0
2017-Aug-16 15:30N 37°55' W 122°22'0 0.0
2017-Aug-16 14:55N 37°55' W 122°22'1 2.0
2017-Aug-16 14:30N 37°54' W 122°22'4 8.9
2017-Aug-16 14:01N 37°50' W 122°24'4 7.6
2017-Aug-16 13:31N 37°46' W 122°23'0 0.0
2017-Aug-16 12:59N 37°46' W 122°23'0 0.0
2017-Aug-16 12:29N 37°46' W 122°23'0 0.0
2017-Aug-16 11:59N 37°46' W 122°23'0 0.0
2017-Aug-16 11:26N 37°46' W 122°23'0 0.0
2017-Aug-16 10:59N 37°46' W 122°23'0 0.0
2017-Aug-16 10:29N 37°46' W 122°23'0 0.0
2017-Aug-16 09:59N 37°46' W 122°23'0 0.0
2017-Aug-16 09:26N 37°46' W 122°23'0 0.0
2017-Aug-16 08:59N 37°46' W 122°23'0 0.0
2017-Aug-16 08:29N 37°46' W 122°23'0 0.0
2017-Aug-16 07:59N 37°46' W 122°23'0 0.0
2017-Aug-16 07:29N 37°46' W 122°23'0 0.0
2017-Aug-16 06:59N 37°46' W 122°23'0 0.0
2017-Aug-16 06:29N 37°46' W 122°23'0 0.0
2017-Aug-16 05:59N 37°46' W 122°23'0 0.0
2017-Aug-16 05:29N 37°46' W 122°23'0 0.0
2017-Aug-16 04:59N 37°46' W 122°23'0 0.0
2017-Aug-16 04:29N 37°46' W 122°23'0 0.0
2017-Aug-16 03:59N 37°46' W 122°23'0 0.0
2017-Aug-16 03:26N 37°46' W 122°23'0 0.0
2017-Aug-16 02:59N 37°46' W 122°23'0 0.0
2017-Aug-16 02:29N 37°46' W 122°23'0 0.0
2017-Aug-16 01:59N 37°46' W 122°23'0 0.0
2017-Aug-16 01:29N 37°46' W 122°23'0 0.0
2017-Aug-16 00:59N 37°46' W 122°23'0 0.0
2017-Aug-16 00:29N 37°46' W 122°23'0 0.0
2017-Aug-15 23:59N 37°46' W 122°23'0 0.0
2017-Aug-15 23:29N 37°46' W 122°23'0 0.0
2017-Aug-15 22:56N 37°46' W 122°23'0 0.0
2017-Aug-15 22:29N 37°46' W 122°23'0 0.0
2017-Aug-15 21:59N 37°46' W 122°23'0 0.0
2017-Aug-15 21:29N 37°46' W 122°23'0 0.0
2017-Aug-15 20:59N 37°46' W 122°23'0 0.0
2017-Aug-15 20:29N 37°46' W 122°23'0 0.0
2017-Aug-15 19:59N 37°46' W 122°23'0 0.0
2017-Aug-15 19:29N 37°46' W 122°23'0 0.0
2017-Aug-15 18:59N 37°46' W 122°23'0 0.0
2017-Aug-15 18:29N 37°46' W 122°23'0 0.0
2017-Aug-15 17:59N 37°46' W 122°23'0 0.0
2017-Aug-15 17:29N 37°46' W 122°23'0 0.0
2017-Aug-15 16:59N 37°46' W 122°23'0 0.0
2017-Aug-15 16:29N 37°46' W 122°23'0 0.0
2017-Aug-15 15:56N 37°46' W 122°23'0 0.0
2017-Aug-15 15:29N 37°46' W 122°23'0 0.0
2017-Aug-15 14:59N 37°46' W 122°23'0 0.0
2017-Aug-15 14:29N 37°46' W 122°23'0 0.0
2017-Aug-15 13:59N 37°46' W 122°23'0 0.0
2017-Aug-15 13:29N 37°46' W 122°23'0 0.0
2017-Aug-15 12:59N 37°46' W 122°23'0 0.0
2017-Aug-15 12:29N 37°46' W 122°23'0 0.0
2017-Aug-15 11:59N 37°46' W 122°23'0 0.0
2017-Aug-15 11:29N 37°46' W 122°23'0 0.0
2017-Aug-15 10:59N 37°46' W 122°23'0 0.0
2017-Aug-15 10:29N 37°46' W 122°23'0 0.0
2017-Aug-15 09:59N 37°46' W 122°23'0 0.0
2017-Aug-15 09:29N 37°46' W 122°23'0 0.0
2017-Aug-15 08:59N 37°46' W 122°23'0 0.0
2017-Aug-15 08:29N 37°46' W 122°23'0 0.0
2017-Aug-15 07:59N 37°46' W 122°23'0 0.0
2017-Aug-15 07:29N 37°46' W 122°23'0 0.0
2017-Aug-15 06:59N 37°46' W 122°23'0 0.0
2017-Aug-15 06:29N 37°46' W 122°23'0 0.0
2017-Aug-15 05:59N 37°46' W 122°23'0 0.0
2017-Aug-15 05:29N 37°46' W 122°23'0 0.0
2017-Aug-15 04:59N 37°46' W 122°23'0 0.0
2017-Aug-15 04:29N 37°46' W 122°23'0 0.0
2017-Aug-15 03:59N 37°46' W 122°23'0 0.0
2017-Aug-15 03:29N 37°46' W 122°23'0 0.0
2017-Aug-15 02:59N 37°46' W 122°23'0 0.0
2017-Aug-15 02:29N 37°46' W 122°23'0 0.0
2017-Aug-15 01:59N 37°46' W 122°23'0 0.0
2017-Aug-15 01:29N 37°46' W 122°23'0 0.0
2017-Aug-15 00:59N 37°46' W 122°23'0 0.0
2017-Aug-15 00:29N 37°46' W 122°23'0 0.0
2017-Aug-14 23:59N 37°46' W 122°23'0 0.0
2017-Aug-14 23:29N 37°46' W 122°23'0 0.0
2017-Aug-14 22:59N 37°46' W 122°23'0 0.0
2017-Aug-14 22:29N 37°46' W 122°23'0 0.0
2017-Aug-14 21:59N 37°46' W 122°23'0 0.0
2017-Aug-14 21:29N 37°46' W 122°23'0 0.0
2017-Aug-14 20:59N 37°46' W 122°23'0 0.0
2017-Aug-14 20:29N 37°46' W 122°23'0 0.0
2017-Aug-14 19:59N 37°46' W 122°23'0 0.0
2017-Aug-14 19:29N 37°46' W 122°23'0 0.0
2017-Aug-14 18:59N 37°46' W 122°23'0 0.0
2017-Aug-14 18:29N 37°46' W 122°23'0 0.0
2017-Aug-14 17:59N 37°46' W 122°23'0 0.0
2017-Aug-14 17:29N 37°46' W 122°23'0 0.0
2017-Aug-14 16:59N 37°46' W 122°23'0 0.0
2017-Aug-14 16:29N 37°46' W 122°23'0 0.0
2017-Aug-14 15:59N 37°46' W 122°23'0 0.0
2017-Aug-14 15:29N 37°46' W 122°23'0 0.0
2017-Aug-14 14:59N 37°46' W 122°23'0 0.0
2017-Aug-14 14:29N 37°46' W 122°23'0 0.0
2017-Aug-14 13:59N 37°46' W 122°23'0 0.0
2017-Aug-14 13:29N 37°46' W 122°23'0 0.0
2017-Aug-14 12:59N 37°46' W 122°23'0 0.0
2017-Aug-14 12:29N 37°46' W 122°23'0 0.0
2017-Aug-14 11:59N 37°46' W 122°23'0 0.0
2017-Aug-14 11:29N 37°46' W 122°23'0 0.0
2017-Aug-14 10:59N 37°46' W 122°23'0 0.0
2017-Aug-14 10:29N 37°46' W 122°23'0 0.0
2017-Aug-14 09:59N 37°46' W 122°23'0 0.0
2017-Aug-14 09:29N 37°46' W 122°23'0 0.0
2017-Aug-14 08:59N 37°46' W 122°23'0 0.0
2017-Aug-14 08:29N 37°46' W 122°23'0 0.0
2017-Aug-14 07:59N 37°46' W 122°23'0 0.0
2017-Aug-14 07:29N 37°46' W 122°23'0 0.0
2017-Aug-14 06:59N 37°46' W 122°23'0 0.0
2017-Aug-14 06:29N 37°46' W 122°23'0 0.0
2017-Aug-14 05:59N 37°46' W 122°23'0 0.0
2017-Aug-14 05:26N 37°46' W 122°23'0 0.0
2017-Aug-14 04:59N 37°46' W 122°23'0 0.0
2017-Aug-14 04:29N 37°46' W 122°23'0 0.0
2017-Aug-14 03:59N 37°46' W 122°23'0 0.0
2017-Aug-14 03:29N 37°46' W 122°23'0 0.0
2017-Aug-14 02:59N 37°46' W 122°23'0 0.0
2017-Aug-14 02:29N 37°46' W 122°23'0 0.0
2017-Aug-14 01:59N 37°46' W 122°23'0 0.0
2017-Aug-14 01:29N 37°46' W 122°23'0 0.0
2017-Aug-14 00:59N 37°46' W 122°23'0 0.0
2017-Aug-14 00:29N 37°46' W 122°23'0 0.0
2017-Aug-13 23:59N 37°46' W 122°23'0 0.0
2017-Aug-13 23:29N 37°46' W 122°23'0 0.0
2017-Aug-13 22:56N 37°46' W 122°23'0 0.1
2017-Aug-13 22:29N 37°46' W 122°23'0 0.0
2017-Aug-13 21:59N 37°46' W 122°23'0 0.0
2017-Aug-13 21:29N 37°46' W 122°23'0 0.0
2017-Aug-13 20:56N 37°46' W 122°23'0 0.0
2017-Aug-13 20:29N 37°46' W 122°23'0 0.0
2017-Aug-13 19:59N 37°46' W 122°23'0 0.0
2017-Aug-13 19:29N 37°46' W 122°23'0 0.0
2017-Aug-13 18:59N 37°46' W 122°23'0 0.0
2017-Aug-13 18:29N 37°46' W 122°23'0 0.0
2017-Aug-13 17:59N 37°46' W 122°23'0 0.0
2017-Aug-13 17:29N 37°46' W 122°23'0 0.0
2017-Aug-13 16:59N 37°46' W 122°23'0 0.0
2017-Aug-13 16:29N 37°46' W 122°23'0 0.0
2017-Aug-13 15:59N 37°46' W 122°23'0 0.0
2017-Aug-13 15:29N 37°46' W 122°23'0 0.0
2017-Aug-13 14:59N 37°46' W 122°23'0 0.0
2017-Aug-13 14:29N 37°46' W 122°23'0 0.0
2017-Aug-13 13:59N 37°46' W 122°23'0 0.0
2017-Aug-13 13:29N 37°46' W 122°23'0 0.0
2017-Aug-13 12:59N 37°46' W 122°23'0 0.0
2017-Aug-13 12:29N 37°46' W 122°23'0 0.0
2017-Aug-13 11:59N 37°46' W 122°23'0 0.0
2017-Aug-13 11:29N 37°46' W 122°23'0 0.0
2017-Aug-13 10:59N 37°46' W 122°23'0 0.0
2017-Aug-13 10:29N 37°46' W 122°23'0 0.0
2017-Aug-13 09:59N 37°46' W 122°23'0 0.0
2017-Aug-13 09:29N 37°46' W 122°23'0 0.0
2017-Aug-13 08:59N 37°46' W 122°23'0 0.0
2017-Aug-13 08:29N 37°46' W 122°23'0 0.0
2017-Aug-13 07:59N 37°46' W 122°23'0 0.0
2017-Aug-13 07:29N 37°46' W 122°23'0 0.0
2017-Aug-13 06:59N 37°46' W 122°23'0 0.0
2017-Aug-13 06:29N 37°46' W 122°23'0 0.0
2017-Aug-13 05:59N 37°46' W 122°23'0 0.0
2017-Aug-13 05:26N 37°46' W 122°23'0 0.0
2017-Aug-13 04:59N 37°46' W 122°23'0 0.0
2017-Aug-13 04:29N 37°46' W 122°23'0 0.0
2017-Aug-13 03:59N 37°46' W 122°23'0 0.0
2017-Aug-13 03:26N 37°46' W 122°23'0 0.0
2017-Aug-13 02:59N 37°46' W 122°23'0 0.0
2017-Aug-13 02:26N 37°46' W 122°23'0 0.0
2017-Aug-13 01:59N 37°46' W 122°23'0 0.0
2017-Aug-13 01:29N 37°46' W 122°23'  
Track history (hours):
 
Tides and Currents Weather Stations Pressure Air Temp Water Temp Dewpoint Dewpoint Depression Visibility Wind Speed Wind Dir Waves Ship Positions

Tecumseh

Owner: Sause Bros. Inc., COOS BAY, OR. More information available from US FCC via Universal Licensing System and Coast Guard Vessel Documentation Center.

Last reported at 2017-Aug-18 10:00 UTC. Time now 2017-Aug-18 10:27 UTC.
Position N 36°28' W 122°37'.

Length 90 m; draft 4.8 m.

Type: Tow > 200 m length. MMSI: 367133160.

Date/timePositionNaut miles runAvg speedWind from/ knotsBaromVisibWave heightAir tempDewpointWater temp
2017-Aug-18 10:00N 36°28' W 122°37'4 7.1
2017-Aug-18 09:30N 36°31' W 122°39'3 7.0
2017-Aug-18 09:00N 36°34' W 122°41'9 7.1
2017-Aug-18 07:47N 36°42' W 122°45'2 7.3
2017-Aug-18 07:29N 36°44' W 122°46'3 7.2
2017-Aug-18 07:00N 36°47' W 122°48'4 6.9
2017-Aug-18 06:30N 36°51' W 122°50'4 7.0
2017-Aug-18 05:53N 36°55' W 122°52'3 7.1
2017-Aug-18 05:30N 36°57' W 122°54'4 7.2
2017-Aug-18 05:00N 37°00' W 122°56'6 7.3
2017-Aug-18 04:11N 37°06' W 122°58'1 7.1
2017-Aug-18 04:00N 37°07' W 122°59'3 7.0
2017-Aug-18 03:30N 37°10' W 123°01'3 6.9
2017-Aug-18 03:00N 37°13' W 123°02'3 6.8
2017-Aug-18 02:30N 37°17' W 123°02'3 6.9
2017-Aug-18 02:00N 37°20' W 123°03'4 7.0
2017-Aug-18 01:30N 37°24' W 123°04'3 6.8
2017-Aug-18 01:01N 37°27' W 123°04'4 7.9
2017-Aug-18 00:30N 37°31' W 123°04'4 7.5
2017-Aug-18 00:00N 37°35' W 123°03'5 7.7
2017-Aug-17 23:25N 37°37' W 122°58'3 7.2
2017-Aug-17 23:00N 37°39' W 122°55'4 7.6
2017-Aug-17 22:29N 37°41' W 122°51'4 7.8
2017-Aug-17 22:00N 37°43' W 122°47'4 7.8
2017-Aug-17 21:30N 37°45' W 122°43'4 7.9
2017-Aug-17 21:00N 37°46' W 122°38'4 8.7
2017-Aug-17 20:30N 37°48' W 122°33'510.0
2017-Aug-17 20:00N 37°50' W 122°27'4 7.4
2017-Aug-17 19:31N 37°53' W 122°25'2 3.6
2017-Aug-17 19:00N 37°55' W 122°26'0 0.0
2017-Aug-17 18:30N 37°55' W 122°26'0 0.0
2017-Aug-17 18:00N 37°55' W 122°26'0 0.1
2017-Aug-17 17:30N 37°55' W 122°26'0 0.0
2017-Aug-17 17:01N 37°55' W 122°26'0 0.0
2017-Aug-17 16:30N 37°55' W 122°26'0 0.0
2017-Aug-17 16:01N 37°55' W 122°26'0 0.5
2017-Aug-17 15:31N 37°55' W 122°26'1 2.0
2017-Aug-17 15:00N 37°55' W 122°25'0 0.3
2017-Aug-17 14:30N 37°55' W 122°25'0 0.0
2017-Aug-17 13:47N 37°55' W 122°25'0 0.0
2017-Aug-17 13:16N 37°55' W 122°25'0 0.0
2017-Aug-17 13:00N 37°55' W 122°25'0 0.0
2017-Aug-17 12:30N 37°55' W 122°25'0 0.0
2017-Aug-17 12:00N 37°55' W 122°25'0 0.0
2017-Aug-17 11:30N 37°55' W 122°25'0 0.0
2017-Aug-17 11:00N 37°55' W 122°25'0 0.0
2017-Aug-17 10:31N 37°55' W 122°25'0 0.0
2017-Aug-17 10:00N 37°55' W 122°25'0 0.0
2017-Aug-17 09:31N 37°55' W 122°25'0 0.0
2017-Aug-17 09:01N 37°55' W 122°25'0 0.0
2017-Aug-17 08:30N 37°55' W 122°25'0 0.0
2017-Aug-17 08:00N 37°55' W 122°25'0 0.0
2017-Aug-17 07:30N 37°55' W 122°25'0 0.0
2017-Aug-17 07:00N 37°55' W 122°25'0 0.0
2017-Aug-17 06:30N 37°55' W 122°25'0 0.0
2017-Aug-17 06:00N 37°55' W 122°25'0 0.0
2017-Aug-17 05:27N 37°55' W 122°25'0 0.0
2017-Aug-17 05:00N 37°55' W 122°25'0 0.0
2017-Aug-17 04:29N 37°55' W 122°25'0 0.0
2017-Aug-17 04:01N 37°55' W 122°25'0 0.0
2017-Aug-17 03:22N 37°55' W 122°25'0 0.0
2017-Aug-17 02:52N 37°55' W 122°25'0 0.3
2017-Aug-17 02:30N 37°55' W 122°25'0 0.0
2017-Aug-17 02:01N 37°55' W 122°25'1 1.9
2017-Aug-17 01:30N 37°55' W 122°26'3 6.3
2017-Aug-17 01:00N 37°52' W 122°24'5 9.5
2017-Aug-17 00:30N 37°48' W 122°23'1 2.2
2017-Aug-17 00:00N 37°46' W 122°23'0 0.0
2017-Aug-16 23:30N 37°46' W 122°23'0 0.0
2017-Aug-16 23:00N 37°46' W 122°23'0 0.0
2017-Aug-16 22:30N 37°46' W 122°23'3 5.4
2017-Aug-16 22:00N 37°49' W 122°24'510.4
2017-Aug-16 21:30N 37°54' W 122°25'2 4.6
2017-Aug-16 21:00N 37°55' W 122°22'0 0.0
2017-Aug-16 20:30N 37°55' W 122°22'0 0.0
2017-Aug-16 20:00N 37°55' W 122°22'0 0.0
2017-Aug-16 19:30N 37°55' W 122°22'0 0.0
2017-Aug-16 19:00N 37°55' W 122°22'0 0.0
2017-Aug-16 18:30N 37°55' W 122°22'0 0.0
2017-Aug-16 18:00N 37°55' W 122°22'0 0.0
2017-Aug-16 17:30N 37°55' W 122°22'0 0.0
2017-Aug-16 17:00N 37°55' W 122°22'0 0.0
2017-Aug-16 16:29N 37°55' W 122°22'0 0.0
2017-Aug-16 16:00N 37°55' W 122°22'0 0.0
2017-Aug-16 15:30N 37°55' W 122°22'0 0.0
2017-Aug-16 14:55N 37°55' W 122°22'1 2.0
2017-Aug-16 14:30N 37°54' W 122°22'4 8.9
2017-Aug-16 14:01N 37°50' W 122°24'4 7.6
2017-Aug-16 13:31N 37°46' W 122°23'0 0.0
2017-Aug-16 12:59N 37°46' W 122°23'0 0.0
2017-Aug-16 12:29N 37°46' W 122°23'0 0.0
2017-Aug-16 11:59N 37°46' W 122°23'0 0.0
2017-Aug-16 11:26N 37°46' W 122°23'0 0.0
2017-Aug-16 10:59N 37°46' W 122°23'0 0.0
2017-Aug-16 10:29N 37°46' W 122°23'0 0.0
2017-Aug-16 09:59N 37°46' W 122°23'0 0.0
2017-Aug-16 09:26N 37°46' W 122°23'0 0.0
2017-Aug-16 08:59N 37°46' W 122°23'0 0.0
2017-Aug-16 08:29N 37°46' W 122°23'0 0.0
2017-Aug-16 07:59N 37°46' W 122°23'0 0.0
2017-Aug-16 07:29N 37°46' W 122°23'0 0.0
2017-Aug-16 06:59N 37°46' W 122°23'0 0.0
2017-Aug-16 06:29N 37°46' W 122°23'0 0.0
2017-Aug-16 05:59N 37°46' W 122°23'0 0.0
2017-Aug-16 05:29N 37°46' W 122°23'0 0.0
2017-Aug-16 04:59N 37°46' W 122°23'0 0.0
2017-Aug-16 04:29N 37°46' W 122°23'0 0.0
2017-Aug-16 03:59N 37°46' W 122°23'0 0.0
2017-Aug-16 03:26N 37°46' W 122°23'0 0.0
2017-Aug-16 02:59N 37°46' W 122°23'0 0.0
2017-Aug-16 02:29N 37°46' W 122°23'0 0.0
2017-Aug-16 01:59N 37°46' W 122°23'0 0.0
2017-Aug-16 01:29N 37°46' W 122°23'0 0.0
2017-Aug-16 00:59N 37°46' W 122°23'0 0.0
2017-Aug-16 00:29N 37°46' W 122°23'0 0.0
2017-Aug-15 23:59N 37°46' W 122°23'0 0.0
2017-Aug-15 23:29N 37°46' W 122°23'0 0.0
2017-Aug-15 22:56N 37°46' W 122°23'0 0.0
2017-Aug-15 22:29N 37°46' W 122°23'0 0.0
2017-Aug-15 21:59N 37°46' W 122°23'0 0.0
2017-Aug-15 21:29N 37°46' W 122°23'0 0.0
2017-Aug-15 20:59N 37°46' W 122°23'0 0.0
2017-Aug-15 20:29N 37°46' W 122°23'0 0.0
2017-Aug-15 19:59N 37°46' W 122°23'0 0.0
2017-Aug-15 19:29N 37°46' W 122°23'0 0.0
2017-Aug-15 18:59N 37°46' W 122°23'0 0.0
2017-Aug-15 18:29N 37°46' W 122°23'0 0.0
2017-Aug-15 17:59N 37°46' W 122°23'0 0.0
2017-Aug-15 17:29N 37°46' W 122°23'0 0.0
2017-Aug-15 16:59N 37°46' W 122°23'0 0.0
2017-Aug-15 16:29N 37°46' W 122°23'0 0.0
2017-Aug-15 15:56N 37°46' W 122°23'0 0.0
2017-Aug-15 15:29N 37°46' W 122°23'0 0.0
2017-Aug-15 14:59N 37°46' W 122°23'0 0.0
2017-Aug-15 14:29N 37°46' W 122°23'0 0.0
2017-Aug-15 13:59N 37°46' W 122°23'0 0.0
2017-Aug-15 13:29N 37°46' W 122°23'0 0.0
2017-Aug-15 12:59N 37°46' W 122°23'0 0.0
2017-Aug-15 12:29N 37°46' W 122°23'0 0.0
2017-Aug-15 11:59N 37°46' W 122°23'0 0.0
2017-Aug-15 11:29N 37°46' W 122°23'0 0.0
2017-Aug-15 10:59N 37°46' W 122°23'0 0.0
2017-Aug-15 10:29N 37°46' W 122°23'0 0.0
2017-Aug-15 09:59N 37°46' W 122°23'0 0.0
2017-Aug-15 09:29N 37°46' W 122°23'0 0.0
2017-Aug-15 08:59N 37°46' W 122°23'0 0.0
2017-Aug-15 08:29N 37°46' W 122°23'0 0.0
2017-Aug-15 07:59N 37°46' W 122°23'0 0.0
2017-Aug-15 07:29N 37°46' W 122°23'0 0.0
2017-Aug-15 06:59N 37°46' W 122°23'0 0.0
2017-Aug-15 06:29N 37°46' W 122°23'0 0.0
2017-Aug-15 05:59N 37°46' W 122°23'0 0.0
2017-Aug-15 05:29N 37°46' W 122°23'0 0.0
2017-Aug-15 04:59N 37°46' W 122°23'0 0.0
2017-Aug-15 04:29N 37°46' W 122°23'0 0.0
2017-Aug-15 03:59N 37°46' W 122°23'0 0.0
2017-Aug-15 03:29N 37°46' W 122°23'0 0.0
2017-Aug-15 02:59N 37°46' W 122°23'0 0.0
2017-Aug-15 02:29N 37°46' W 122°23'0 0.0
2017-Aug-15 01:59N 37°46' W 122°23'0 0.0
2017-Aug-15 01:29N 37°46' W 122°23'0 0.0
2017-Aug-15 00:59N 37°46' W 122°23'0 0.0
2017-Aug-15 00:29N 37°46' W 122°23'0 0.0
2017-Aug-14 23:59N 37°46' W 122°23'0 0.0
2017-Aug-14 23:29N 37°46' W 122°23'0 0.0
2017-Aug-14 22:59N 37°46' W 122°23'0 0.0
2017-Aug-14 22:29N 37°46' W 122°23'0 0.0
2017-Aug-14 21:59N 37°46' W 122°23'0 0.0
2017-Aug-14 21:29N 37°46' W 122°23'0 0.0
2017-Aug-14 20:59N 37°46' W 122°23'0 0.0
2017-Aug-14 20:29N 37°46' W 122°23'0 0.0
2017-Aug-14 19:59N 37°46' W 122°23'0 0.0
2017-Aug-14 19:29N 37°46' W 122°23'0 0.0
2017-Aug-14 18:59N 37°46' W 122°23'0 0.0
2017-Aug-14 18:29N 37°46' W 122°23'0 0.0
2017-Aug-14 17:59N 37°46' W 122°23'0 0.0
2017-Aug-14 17:29N 37°46' W 122°23'0 0.0
2017-Aug-14 16:59N 37°46' W 122°23'0 0.0
2017-Aug-14 16:29N 37°46' W 122°23'0 0.0
2017-Aug-14 15:59N 37°46' W 122°23'0 0.0
2017-Aug-14 15:29N 37°46' W 122°23'0 0.0
2017-Aug-14 14:59N 37°46' W 122°23'0 0.0
2017-Aug-14 14:29N 37°46' W 122°23'0 0.0
2017-Aug-14 13:59N 37°46' W 122°23'0 0.0
2017-Aug-14 13:29N 37°46' W 122°23'0 0.0
2017-Aug-14 12:59N 37°46' W 122°23'0 0.0
2017-Aug-14 12:29N 37°46' W 122°23'0 0.0
2017-Aug-14 11:59N 37°46' W 122°23'0 0.0
2017-Aug-14 11:29N 37°46' W 122°23'0 0.0
2017-Aug-14 10:59N 37°46' W 122°23'0 0.0
2017-Aug-14 10:29N 37°46' W 122°23'0 0.0
2017-Aug-14 09:59N 37°46' W 122°23'0 0.0
2017-Aug-14 09:29N 37°46' W 122°23'0 0.0
2017-Aug-14 08:59N 37°46' W 122°23'0 0.0
2017-Aug-14 08:29N 37°46' W 122°23'0 0.0
2017-Aug-14 07:59N 37°46' W 122°23'0 0.0
2017-Aug-14 07:29N 37°46' W 122°23'0 0.0
2017-Aug-14 06:59N 37°46' W 122°23'0 0.0
2017-Aug-14 06:29N 37°46' W 122°23'0 0.0
2017-Aug-14 05:59N 37°46' W 122°23'0 0.0
2017-Aug-14 05:26N 37°46' W 122°23'0 0.0
2017-Aug-14 04:59N 37°46' W 122°23'0 0.0
2017-Aug-14 04:29N 37°46' W 122°23'0 0.0
2017-Aug-14 03:59N 37°46' W 122°23'0 0.0
2017-Aug-14 03:29N 37°46' W 122°23'0 0.0
2017-Aug-14 02:59N 37°46' W 122°23'0 0.0
2017-Aug-14 02:29N 37°46' W 122°23'0 0.0
2017-Aug-14 01:59N 37°46' W 122°23'0 0.0
2017-Aug-14 01:29N 37°46' W 122°23'0 0.0
2017-Aug-14 00:59N 37°46' W 122°23'0 0.0
2017-Aug-14 00:29N 37°46' W 122°23'0 0.0
2017-Aug-13 23:59N 37°46' W 122°23'0 0.0
2017-Aug-13 23:29N 37°46' W 122°23'0 0.0
2017-Aug-13 22:56N 37°46' W 122°23'0 0.1
2017-Aug-13 22:29N 37°46' W 122°23'0 0.0
2017-Aug-13 21:59N 37°46' W 122°23'0 0.0
2017-Aug-13 21:29N 37°46' W 122°23'0 0.0
2017-Aug-13 20:56N 37°46' W 122°23'0 0.0
2017-Aug-13 20:29N 37°46' W 122°23'0 0.0
2017-Aug-13 19:59N 37°46' W 122°23'0 0.0
2017-Aug-13 19:29N 37°46' W 122°23'0 0.0
2017-Aug-13 18:59N 37°46' W 122°23'0 0.0
2017-Aug-13 18:29N 37°46' W 122°23'0 0.0
2017-Aug-13 17:59N 37°46' W 122°23'0 0.0
2017-Aug-13 17:29N 37°46' W 122°23'0 0.0
2017-Aug-13 16:59N 37°46' W 122°23'0 0.0
2017-Aug-13 16:29N 37°46' W 122°23'0 0.0
2017-Aug-13 15:59N 37°46' W 122°23'0 0.0
2017-Aug-13 15:29N 37°46' W 122°23'0 0.0
2017-Aug-13 14:59N 37°46' W 122°23'0 0.0
2017-Aug-13 14:29N 37°46' W 122°23'0 0.0
2017-Aug-13 13:59N 37°46' W 122°23'0 0.0
2017-Aug-13 13:29N 37°46' W 122°23'0 0.0
2017-Aug-13 12:59N 37°46' W 122°23'0 0.0
2017-Aug-13 12:29N 37°46' W 122°23'0 0.0
2017-Aug-13 11:59N 37°46' W 122°23'0 0.0
2017-Aug-13 11:29N 37°46' W 122°23'0 0.0
2017-Aug-13 10:59N 37°46' W 122°23'0 0.0
2017-Aug-13 10:29N 37°46' W 122°23'0 0.0
2017-Aug-13 09:59N 37°46' W 122°23'0 0.0
2017-Aug-13 09:29N 37°46' W 122°23'0 0.0
2017-Aug-13 08:59N 37°46' W 122°23'0 0.0
2017-Aug-13 08:29N 37°46' W 122°23'0 0.0
2017-Aug-13 07:59N 37°46' W 122°23'0 0.0
2017-Aug-13 07:29N 37°46' W 122°23'0 0.0
2017-Aug-13 06:59N 37°46' W 122°23'0 0.0
2017-Aug-13 06:29N 37°46' W 122°23'0 0.0
2017-Aug-13 05:59N 37°46' W 122°23'0 0.0
2017-Aug-13 05:26N 37°46' W 122°23'0 0.0
2017-Aug-13 04:59N 37°46' W 122°23'0 0.0
2017-Aug-13 04:29N 37°46' W 122°23'0 0.0
2017-Aug-13 03:59N 37°46' W 122°23'0 0.0
2017-Aug-13 03:26N 37°46' W 122°23'0 0.0
2017-Aug-13 02:59N 37°46' W 122°23'0 0.0
2017-Aug-13 02:26N 37°46' W 122°23'0 0.0
2017-Aug-13 01:59N 37°46' W 122°23'0 0.0
2017-Aug-13 01:29N 37°46' W 122°23'  

Dump ship's entire track history